sensor_id;sensor_type;location;lat;lon;timestamp;P1;durP1;ratioP1;P2;durP2;ratioP2
22675;SDS011;12521;43.310;21.876;2023-02-15T00:02:55;32.0;;;26.0;;
22675;SDS011;12521;43.310;21.876;2023-02-15T00:07:31;32.0;;;26.0;;
22675;SDS011;12521;43.310;21.876;2023-02-15T00:12:09;30.0;;;24.0;;
22675;SDS011;12521;43.310;21.876;2023-02-15T00:16:47;30.0;;;24.0;;
22675;SDS011;12521;43.310;21.876;2023-02-15T00:21:29;27.0;;;23.0;;
22675;SDS011;12521;43.310;21.876;2023-02-15T00:26:11;27.0;;;23.0;;
22675;SDS011;12521;43.310;21.876;2023-02-15T00:30:48;24.0;;;22.0;;
22675;SDS011;12521;43.310;21.876;2023-02-15T00:35:24;24.0;;;22.0;;
22675;SDS011;12521;43.310;21.876;2023-02-15T00:40:01;24.0;;;22.0;;
22675;SDS011;12521;43.310;21.876;2023-02-15T00:44:40;22.0;;;20.0;;
22675;SDS011;12521;43.310;21.876;2023-02-15T00:49:17;22.0;;;20.0;;
22675;SDS011;12521;43.310;21.876;2023-02-15T00:53:54;26.0;;;21.0;;
22675;SDS011;12521;43.310;21.876;2023-02-15T00:58:31;26.0;;;21.0;;
22675;SDS011;12521;43.310;21.876;2023-02-15T01:03:08;29.0;;;22.0;;
22675;SDS011;12521;43.310;21.876;2023-02-15T01:07:49;29.0;;;22.0;;
22675;SDS011;12521;43.310;21.876;2023-02-15T01:12:26;38.0;;;28.0;;
22675;SDS011;12521;43.310;21.876;2023-02-15T01:17:02;38.0;;;28.0;;
22675;SDS011;12521;43.310;21.876;2023-02-15T01:21:39;46.0;;;34.0;;
22675;SDS011;12521;43.310;21.876;2023-02-15T01:26:16;46.0;;;34.0;;
22675;SDS011;12521;43.310;21.876;2023-02-15T01:30:54;37.0;;;28.0;;
22675;SDS011;12521;43.310;21.876;2023-02-15T01:35:31;37.0;;;28.0;;
22675;SDS011;12521;43.310;21.876;2023-02-15T01:40:11;37.0;;;28.0;;
22675;SDS011;12521;43.310;21.876;2023-02-15T01:44:54;28.0;;;23.0;;
22675;SDS011;12521;43.310;21.876;2023-02-15T01:49:40;28.0;;;23.0;;
22675;SDS011;12521;43.310;21.876;2023-02-15T01:54:23;39.0;;;30.0;;
22675;SDS011;12521;43.310;21.876;2023-02-15T01:59:13;39.0;;;30.0;;
22675;SDS011;12521;43.310;21.876;2023-02-15T02:04:04;50.0;;;38.0;;
22675;SDS011;12521;43.310;21.876;2023-02-15T02:09:04;50.0;;;38.0;;
22675;SDS011;12521;43.310;21.876;2023-02-15T02:13:43;42.0;;;30.0;;
22675;SDS011;12521;43.310;21.876;2023-02-15T02:18:26;42.0;;;30.0;;
22675;SDS011;12521;43.310;21.876;2023-02-15T02:24:33;34.0;;;23.0;;
22675;SDS011;12521;43.310;21.876;2023-02-15T02:30:51;34.0;;;23.0;;
22675;SDS011;12521;43.310;21.876;2023-02-15T02:36:58;36.0;;;27.0;;
22675;SDS011;12521;43.310;21.876;2023-02-15T02:42:09;37.0;;;31.0;;
22675;SDS011;12521;43.310;21.876;2023-02-15T02:47:16;37.0;;;31.0;;
22675;SDS011;12521;43.310;21.876;2023-02-15T02:52:38;36.0;;;30.0;;
22675;SDS011;12521;43.310;21.876;2023-02-15T02:57:22;36.0;;;30.0;;
22675;SDS011;12521;43.310;21.876;2023-02-15T03:02:08;35.0;;;30.0;;
22675;SDS011;12521;43.310;21.876;2023-02-15T03:07:04;35.0;;;30.0;;
22675;SDS011;12521;43.310;21.876;2023-02-15T03:11:57;34.0;;;29.0;;
22675;SDS011;12521;43.310;21.876;2023-02-15T03:16:34;34.0;;;29.0;;
22675;SDS011;12521;43.310;21.876;2023-02-15T03:21:17;32.0;;;28.0;;
22675;SDS011;12521;43.310;21.876;2023-02-15T03:26:06;32.0;;;28.0;;
22675;SDS011;12521;43.310;21.876;2023-02-15T03:30:45;32.0;;;28.0;;
22675;SDS011;12521;43.310;21.876;2023-02-15T03:35:44;34.0;;;29.0;;
22675;SDS011;12521;43.310;21.876;2023-02-15T03:40:50;34.0;;;29.0;;
22675;SDS011;12521;43.310;21.876;2023-02-15T03:45:42;37.0;;;30.0;;
22675;SDS011;12521;43.310;21.876;2023-02-15T03:50:43;37.0;;;30.0;;
22675;SDS011;12521;43.310;21.876;2023-02-15T03:55:21;40.0;;;34.0;;
22675;SDS011;12521;43.310;21.876;2023-02-15T03:59:59;40.0;;;34.0;;
22675;SDS011;12521;43.310;21.876;2023-02-15T04:04:57;44.0;;;37.0;;
22675;SDS011;12521;43.310;21.876;2023-02-15T04:09:34;44.0;;;37.0;;
22675;SDS011;12521;43.310;21.876;2023-02-15T04:14:11;40.0;;;33.0;;
22675;SDS011;12521;43.310;21.876;2023-02-15T04:18:48;40.0;;;33.0;;
22675;SDS011;12521;43.310;21.876;2023-02-15T04:23:25;37.0;;;29.0;;
22675;SDS011;12521;43.310;21.876;2023-02-15T04:28:02;37.0;;;29.0;;
22675;SDS011;12521;43.310;21.876;2023-02-15T04:32:39;36.0;;;30.0;;
22675;SDS011;12521;43.310;21.876;2023-02-15T04:37:17;36.0;;;30.0;;
22675;SDS011;12521;43.310;21.876;2023-02-15T04:41:54;34.0;;;30.0;;
22675;SDS011;12521;43.310;21.876;2023-02-15T04:46:31;34.0;;;30.0;;
22675;SDS011;12521;43.310;21.876;2023-02-15T04:51:07;43.0;;;38.0;;
22675;SDS011;12521;43.310;21.876;2023-02-15T04:55:44;43.0;;;38.0;;
22675;SDS011;12521;43.310;21.876;2023-02-15T05:00:21;43.0;;;38.0;;
22675;SDS011;12521;43.310;21.876;2023-02-15T05:04:58;52.0;;;45.0;;
22675;SDS011;12521;43.310;21.876;2023-02-15T05:09:35;52.0;;;45.0;;
22675;SDS011;12521;43.310;21.876;2023-02-15T05:14:12;44.0;;;36.0;;
22675;SDS011;12521;43.310;21.876;2023-02-15T05:18:49;44.0;;;36.0;;
22675;SDS011;12521;43.310;21.876;2023-02-15T05:23:25;37.0;;;28.0;;
22675;SDS011;12521;43.310;21.876;2023-02-15T05:28:03;37.0;;;28.0;;
22675;SDS011;12521;43.310;21.876;2023-02-15T05:32:40;36.0;;;30.0;;
22675;SDS011;12521;43.310;21.876;2023-02-15T05:37:16;36.0;;;30.0;;
22675;SDS011;12521;43.310;21.876;2023-02-15T05:41:52;36.0;;;31.0;;
22675;SDS011;12521;43.310;21.876;2023-02-15T05:46:29;36.0;;;31.0;;
22675;SDS011;12521;43.310;21.876;2023-02-15T05:51:06;41.0;;;34.0;;
22675;SDS011;12521;43.310;21.876;2023-02-15T05:55:48;41.0;;;34.0;;
22675;SDS011;12521;43.310;21.876;2023-02-15T06:00:25;41.0;;;34.0;;
22675;SDS011;12521;43.310;21.876;2023-02-15T06:05:02;46.0;;;38.0;;
22675;SDS011;12521;43.310;21.876;2023-02-15T06:09:42;46.0;;;38.0;;
22675;SDS011;12521;43.310;21.876;2023-02-15T06:14:19;50.0;;;40.0;;
22675;SDS011;12521;43.310;21.876;2023-02-15T06:18:55;50.0;;;40.0;;
22675;SDS011;12521;43.310;21.876;2023-02-15T06:23:32;54.0;;;42.0;;
22675;SDS011;12521;43.310;21.876;2023-02-15T06:28:09;54.0;;;42.0;;
22675;SDS011;12521;43.310;21.876;2023-02-15T06:32:45;61.0;;;50.0;;
22675;SDS011;12521;43.310;21.876;2023-02-15T06:37:22;61.0;;;50.0;;
22675;SDS011;12521;43.310;21.876;2023-02-15T06:41:59;68.0;;;59.0;;
22675;SDS011;12521;43.310;21.876;2023-02-15T06:46:36;68.0;;;59.0;;
22675;SDS011;12521;43.310;21.876;2023-02-15T06:51:13;72.0;;;55.0;;
22675;SDS011;12521;43.310;21.876;2023-02-15T06:55:50;72.0;;;55.0;;
22675;SDS011;12521;43.310;21.876;2023-02-15T07:00:27;72.0;;;55.0;;
22675;SDS011;12521;43.310;21.876;2023-02-15T07:05:03;77.0;;;51.0;;
22675;SDS011;12521;43.310;21.876;2023-02-15T07:09:41;77.0;;;51.0;;
22675;SDS011;12521;43.310;21.876;2023-02-15T07:14:17;70.0;;;48.0;;
22675;SDS011;12521;43.310;21.876;2023-02-15T07:18:54;70.0;;;48.0;;
22675;SDS011;12521;43.310;21.876;2023-02-15T07:23:31;62.0;;;45.0;;
22675;SDS011;12521;43.310;21.876;2023-02-15T07:28:08;62.0;;;45.0;;
22675;SDS011;12521;43.310;21.876;2023-02-15T07:32:44;53.0;;;41.0;;
22675;SDS011;12521;43.310;21.876;2023-02-15T07:37:21;53.0;;;41.0;;
22675;SDS011;12521;43.310;21.876;2023-02-15T07:41:59;44.0;;;37.0;;
22675;SDS011;12521;43.310;21.876;2023-02-15T07:46:36;44.0;;;37.0;;
22675;SDS011;12521;43.310;21.876;2023-02-15T07:51:13;44.0;;;38.0;;
22675;SDS011;12521;43.310;21.876;2023-02-15T07:55:51;44.0;;;38.0;;
22675;SDS011;12521;43.310;21.876;2023-02-15T08:00:28;44.0;;;38.0;;
22675;SDS011;12521;43.310;21.876;2023-02-15T08:05:05;45.0;;;40.0;;
22675;SDS011;12521;43.310;21.876;2023-02-15T08:09:43;45.0;;;40.0;;
22675;SDS011;12521;43.310;21.876;2023-02-15T08:14:20;44.0;;;38.0;;
22675;SDS011;12521;43.310;21.876;2023-02-15T08:18:58;44.0;;;38.0;;
22675;SDS011;12521;43.310;21.876;2023-02-15T08:23:43;43.0;;;37.0;;
22675;SDS011;12521;43.310;21.876;2023-02-15T08:28:21;43.0;;;37.0;;
22675;SDS011;12521;43.310;21.876;2023-02-15T08:32:57;46.0;;;36.0;;
22675;SDS011;12521;43.310;21.876;2023-02-15T08:37:33;46.0;;;36.0;;
22675;SDS011;12521;43.310;21.876;2023-02-15T08:42:10;49.0;;;36.0;;
22675;SDS011;12521;43.310;21.876;2023-02-15T08:46:46;49.0;;;36.0;;
22675;SDS011;12521;43.310;21.876;2023-02-15T08:51:26;47.0;;;36.0;;
22675;SDS011;12521;43.310;21.876;2023-02-15T08:56:12;47.0;;;36.0;;
22675;SDS011;12521;43.310;21.876;2023-02-15T09:00:49;47.0;;;36.0;;
22675;SDS011;12521;43.310;21.876;2023-02-15T09:05:27;45.0;;;37.0;;
22675;SDS011;12521;43.310;21.876;2023-02-15T09:10:03;45.0;;;37.0;;
22675;SDS011;12521;43.310;21.876;2023-02-15T09:14:42;39.0;;;32.0;;
22675;SDS011;12521;43.310;21.876;2023-02-15T09:19:20;39.0;;;32.0;;
22675;SDS011;12521;43.310;21.876;2023-02-15T09:24:01;33.0;;;27.0;;
22675;SDS011;12521;43.310;21.876;2023-02-15T09:28:52;33.0;;;27.0;;
22675;SDS011;12521;43.310;21.876;2023-02-15T09:33:38;38.0;;;28.0;;
22675;SDS011;12521;43.310;21.876;2023-02-15T09:38:23;38.0;;;28.0;;
22675;SDS011;12521;43.310;21.876;2023-02-15T09:43:04;42.0;;;30.0;;
22675;SDS011;12521;43.310;21.876;2023-02-15T09:48:32;42.0;;;30.0;;
22675;SDS011;12521;43.310;21.876;2023-02-15T09:53:25;38.0;;;30.0;;
22675;SDS011;12521;43.310;21.876;2023-02-15T09:59:10;38.0;;;30.0;;
22675;SDS011;12521;43.310;21.876;2023-02-15T10:04:39;34.0;;;29.0;;
22675;SDS011;12521;43.310;21.876;2023-02-15T10:10:03;34.0;;;29.0;;
22675;SDS011;12521;43.310;21.876;2023-02-15T10:15:23;32.0;;;28.0;;
22675;SDS011;12521;43.310;21.876;2023-02-15T10:20:55;32.0;;;28.0;;
22675;SDS011;12521;43.310;21.876;2023-02-15T10:26:26;30.0;;;26.0;;
22675;SDS011;12521;43.310;21.876;2023-02-15T10:31:23;36.0;;;30.0;;
22675;SDS011;12521;43.310;21.876;2023-02-15T10:36:27;36.0;;;30.0;;
22675;SDS011;12521;43.310;21.876;2023-02-15T10:42:19;41.0;;;33.0;;
22675;SDS011;12521;43.310;21.876;2023-02-15T10:47:58;41.0;;;33.0;;
22675;SDS011;12521;43.310;21.876;2023-02-15T10:54:02;37.0;;;30.0;;
22675;SDS011;12521;43.310;21.876;2023-02-15T10:59:21;37.0;;;30.0;;
22675;SDS011;12521;43.310;21.876;2023-02-15T11:04:45;33.0;;;28.0;;
22675;SDS011;12521;43.310;21.876;2023-02-15T11:10:05;33.0;;;28.0;;
22675;SDS011;12521;43.310;21.876;2023-02-15T11:15:19;47.0;;;36.0;;
22675;SDS011;12521;43.310;21.876;2023-02-15T11:20:16;47.0;;;36.0;;
22675;SDS011;12521;43.310;21.876;2023-02-15T11:25:18;61.0;;;44.0;;
22675;SDS011;12521;43.310;21.876;2023-02-15T11:30:11;61.0;;;44.0;;
22675;SDS011;12521;43.310;21.876;2023-02-15T11:35:18;49.0;;;35.0;;
22675;SDS011;12521;43.310;21.876;2023-02-15T11:40:26;49.0;;;35.0;;
22675;SDS011;12521;43.310;21.876;2023-02-15T11:45:26;37.0;;;26.0;;
22675;SDS011;12521;43.310;21.876;2023-02-15T11:50:11;37.0;;;26.0;;
22675;SDS011;12521;43.310;21.876;2023-02-15T11:55:01;38.0;;;29.0;;
22675;SDS011;12521;43.310;21.876;2023-02-15T12:00:00;38.0;;;29.0;;
22675;SDS011;12521;43.310;21.876;2023-02-15T12:05:18;40.0;;;32.0;;
22675;SDS011;12521;43.310;21.876;2023-02-15T12:10:03;40.0;;;32.0;;
22675;SDS011;12521;43.310;21.876;2023-02-15T12:15:06;34.0;;;28.0;;
22675;SDS011;12521;43.310;21.876;2023-02-15T12:19:49;34.0;;;28.0;;
22675;SDS011;12521;43.310;21.876;2023-02-15T12:24:43;27.0;;;24.0;;
22675;SDS011;12521;43.310;21.876;2023-02-15T12:29:32;27.0;;;24.0;;
22675;SDS011;12521;43.310;21.876;2023-02-15T12:34:29;44.0;;;32.0;;
22675;SDS011;12521;43.310;21.876;2023-02-15T12:39:17;44.0;;;32.0;;
22675;SDS011;12521;43.310;21.876;2023-02-15T12:44:05;60.0;;;41.0;;
22675;SDS011;12521;43.310;21.876;2023-02-15T12:49:06;60.0;;;41.0;;
22675;SDS011;12521;43.310;21.876;2023-02-15T12:53:55;49.0;;;34.0;;
22675;SDS011;12521;43.310;21.876;2023-02-15T12:58:32;49.0;;;34.0;;
22675;SDS011;12521;43.310;21.876;2023-02-15T13:03:16;38.0;;;27.0;;
22675;SDS011;12521;43.310;21.876;2023-02-15T13:07:59;38.0;;;27.0;;
22675;SDS011;12521;43.310;21.876;2023-02-15T13:12:56;44.0;;;34.0;;
22675;SDS011;12521;43.310;21.876;2023-02-15T13:17:36;44.0;;;34.0;;
22675;SDS011;12521;43.310;21.876;2023-02-15T13:22:14;50.0;;;42.0;;
22675;SDS011;12521;43.310;21.876;2023-02-15T13:27:14;50.0;;;42.0;;
22675;SDS011;12521;43.310;21.876;2023-02-15T13:32:21;45.0;;;36.0;;
22675;SDS011;12521;43.310;21.876;2023-02-15T13:37:15;45.0;;;36.0;;
22675;SDS011;12521;43.310;21.876;2023-02-15T13:42:41;40.0;;;31.0;;
22675;SDS011;12521;43.310;21.876;2023-02-15T13:47:48;40.0;;;31.0;;
22675;SDS011;12521;43.310;21.876;2023-02-15T13:53:10;38.0;;;30.0;;
22675;SDS011;12521;43.310;21.876;2023-02-15T13:58:49;38.0;;;30.0;;
22675;SDS011;12521;43.310;21.876;2023-02-15T14:04:15;35.0;;;30.0;;
22675;SDS011;12521;43.310;21.876;2023-02-15T14:10:09;35.0;;;30.0;;
22675;SDS011;12521;43.310;21.876;2023-02-15T14:15:35;38.0;;;30.0;;
22675;SDS011;12521;43.310;21.876;2023-02-15T14:20:44;38.0;;;30.0;;
22675;SDS011;12521;43.310;21.876;2023-02-15T14:25:59;42.0;;;31.0;;
22675;SDS011;12521;43.310;21.876;2023-02-15T14:31:15;42.0;;;31.0;;
22675;SDS011;12521;43.310;21.876;2023-02-15T14:36:24;39.0;;;32.0;;
22675;SDS011;12521;43.310;21.876;2023-02-15T14:41:09;39.0;;;32.0;;
22675;SDS011;12521;43.310;21.876;2023-02-15T14:46:25;36.0;;;33.0;;
22675;SDS011;12521;43.310;21.876;2023-02-15T14:51:53;35.0;;;31.0;;
22675;SDS011;12521;43.310;21.876;2023-02-15T14:56:43;35.0;;;31.0;;
22675;SDS011;12521;43.310;21.876;2023-02-15T15:02:15;34.0;;;29.0;;
22675;SDS011;12521;43.310;21.876;2023-02-15T15:07:17;34.0;;;29.0;;
22675;SDS011;12521;43.310;21.876;2023-02-15T15:12:36;34.0;;;29.0;;
22675;SDS011;12521;43.310;21.876;2023-02-15T15:17:51;34.0;;;29.0;;
22675;SDS011;12521;43.310;21.876;2023-02-15T15:22:40;34.0;;;29.0;;
22675;SDS011;12521;43.310;21.876;2023-02-15T15:27:37;34.0;;;29.0;;
22675;SDS011;12521;43.310;21.876;2023-02-15T15:32:27;38.0;;;33.0;;
22675;SDS011;12521;43.310;21.876;2023-02-15T15:37:26;38.0;;;33.0;;
22675;SDS011;12521;43.310;21.876;2023-02-15T15:43:31;42.0;;;37.0;;
22675;SDS011;12521;43.310;21.876;2023-02-15T15:50:20;42.0;;;37.0;;
22675;SDS011;12521;43.310;21.876;2023-02-15T15:54:58;57.0;;;46.0;;
22675;SDS011;12521;43.310;21.876;2023-02-15T15:59:58;57.0;;;46.0;;
22675;SDS011;12521;43.310;21.876;2023-02-15T16:04:39;72.0;;;55.0;;
22675;SDS011;12521;43.310;21.876;2023-02-15T16:09:16;72.0;;;55.0;;
22675;SDS011;12521;43.310;21.876;2023-02-15T16:14:02;99.0;;;75.0;;
22675;SDS011;12521;43.310;21.876;2023-02-15T16:18:43;99.0;;;75.0;;
22675;SDS011;12521;43.310;21.876;2023-02-15T16:23:32;126.0;;;95.0;;
22675;SDS011;12521;43.310;21.876;2023-02-15T16:29:01;126.0;;;95.0;;
22675;SDS011;12521;43.310;21.876;2023-02-15T16:33:52;180.0;;;142.0;;
22675;SDS011;12521;43.310;21.876;2023-02-15T16:38:38;180.0;;;142.0;;
22675;SDS011;12521;43.310;21.876;2023-02-15T16:43:55;234.0;;;188.0;;
22675;SDS011;12521;43.310;21.876;2023-02-15T16:48:56;234.0;;;188.0;;
22675;SDS011;12521;43.310;21.876;2023-02-15T16:53:55;212.0;;;174.0;;
22675;SDS011;12521;43.310;21.876;2023-02-15T16:58:54;212.0;;;174.0;;
22675;SDS011;12521;43.310;21.876;2023-02-15T17:03:36;190.0;;;160.0;;
22675;SDS011;12521;43.310;21.876;2023-02-15T17:08:17;190.0;;;160.0;;
22675;SDS011;12521;43.310;21.876;2023-02-15T17:13:10;205.0;;;164.0;;
22675;SDS011;12521;43.310;21.876;2023-02-15T17:17:54;205.0;;;164.0;;
22675;SDS011;12521;43.310;21.876;2023-02-15T17:22:50;220.0;;;168.0;;
22675;SDS011;12521;43.310;21.876;2023-02-15T17:27:30;220.0;;;168.0;;
22675;SDS011;12521;43.310;21.876;2023-02-15T17:32:12;225.0;;;182.0;;
22675;SDS011;12521;43.310;21.876;2023-02-15T17:37:00;225.0;;;182.0;;
22675;SDS011;12521;43.310;21.876;2023-02-15T17:41:36;225.0;;;182.0;;
22675;SDS011;12521;43.310;21.876;2023-02-15T17:46:13;230.0;;;196.0;;
22675;SDS011;12521;43.310;21.876;2023-02-15T17:50:50;230.0;;;196.0;;
22675;SDS011;12521;43.310;21.876;2023-02-15T17:55:27;227.0;;;193.0;;
22675;SDS011;12521;43.310;21.876;2023-02-15T18:00:04;227.0;;;193.0;;
22675;SDS011;12521;43.310;21.876;2023-02-15T18:04:51;224.0;;;190.0;;
22675;SDS011;12521;43.310;21.876;2023-02-15T18:09:28;224.0;;;190.0;;
22675;SDS011;12521;43.310;21.876;2023-02-15T18:14:05;232.0;;;192.0;;
22675;SDS011;12521;43.310;21.876;2023-02-15T18:18:45;232.0;;;192.0;;
22675;SDS011;12521;43.310;21.876;2023-02-15T18:23:22;241.0;;;193.0;;
22675;SDS011;12521;43.310;21.876;2023-02-15T18:27:59;241.0;;;193.0;;
22675;SDS011;12521;43.310;21.876;2023-02-15T18:32:35;235.0;;;186.0;;
22675;SDS011;12521;43.310;21.876;2023-02-15T18:37:14;235.0;;;186.0;;
22675;SDS011;12521;43.310;21.876;2023-02-15T18:41:58;229.0;;;180.0;;
22675;SDS011;12521;43.310;21.876;2023-02-15T18:46:35;229.0;;;180.0;;
22675;SDS011;12521;43.310;21.876;2023-02-15T18:51:13;229.0;;;180.0;;
22675;SDS011;12521;43.310;21.876;2023-02-15T18:55:58;246.0;;;194.0;;
22675;SDS011;12521;43.310;21.876;2023-02-15T19:00:34;246.0;;;194.0;;
22675;SDS011;12521;43.310;21.876;2023-02-15T19:05:11;263.0;;;208.0;;
22675;SDS011;12521;43.310;21.876;2023-02-15T19:09:50;263.0;;;208.0;;
22675;SDS011;12521;43.310;21.876;2023-02-15T19:14:38;250.0;;;202.0;;
22675;SDS011;12521;43.310;21.876;2023-02-15T19:19:15;250.0;;;202.0;;
22675;SDS011;12521;43.310;21.876;2023-02-15T19:23:53;237.0;;;195.0;;
22675;SDS011;12521;43.310;21.876;2023-02-15T19:28:49;237.0;;;195.0;;
22675;SDS011;12521;43.310;21.876;2023-02-15T19:33:27;238.0;;;199.0;;
22675;SDS011;12521;43.310;21.876;2023-02-15T19:38:06;238.0;;;199.0;;
22675;SDS011;12521;43.310;21.876;2023-02-15T19:43:05;240.0;;;203.0;;
22675;SDS011;12521;43.310;21.876;2023-02-15T19:47:58;240.0;;;203.0;;
22675;SDS011;12521;43.310;21.876;2023-02-15T19:52:36;268.0;;;212.0;;
22675;SDS011;12521;43.310;21.876;2023-02-15T19:57:15;268.0;;;212.0;;
22675;SDS011;12521;43.310;21.876;2023-02-15T20:01:52;296.0;;;222.0;;
22675;SDS011;12521;43.310;21.876;2023-02-15T20:06:33;296.0;;;222.0;;
22675;SDS011;12521;43.310;21.876;2023-02-15T20:11:10;296.0;;;222.0;;
22675;SDS011;12521;43.310;21.876;2023-02-15T20:15:49;289.0;;;226.0;;
22675;SDS011;12521;43.310;21.876;2023-02-15T20:20:27;289.0;;;226.0;;
22675;SDS011;12521;43.310;21.876;2023-02-15T20:25:23;282.0;;;231.0;;
22675;SDS011;12521;43.310;21.876;2023-02-15T20:30:12;282.0;;;231.0;;
22675;SDS011;12521;43.310;21.876;2023-02-15T20:35:03;268.0;;;221.0;;
22675;SDS011;12521;43.310;21.876;2023-02-15T20:39:46;268.0;;;221.0;;
22675;SDS011;12521;43.310;21.876;2023-02-15T20:44:24;255.0;;;211.0;;
22675;SDS011;12521;43.310;21.876;2023-02-15T20:49:06;255.0;;;211.0;;
22675;SDS011;12521;43.310;21.876;2023-02-15T20:53:43;226.0;;;188.0;;
22675;SDS011;12521;43.310;21.876;2023-02-15T20:58:22;226.0;;;188.0;;
22675;SDS011;12521;43.310;21.876;2023-02-15T21:03:09;197.0;;;165.0;;
22675;SDS011;12521;43.310;21.876;2023-02-15T21:07:57;197.0;;;165.0;;
22675;SDS011;12521;43.310;21.876;2023-02-15T21:12:36;182.0;;;148.0;;
22675;SDS011;12521;43.310;21.876;2023-02-15T21:17:14;182.0;;;148.0;;
22675;SDS011;12521;43.310;21.876;2023-02-15T21:21:52;182.0;;;148.0;;
22675;SDS011;12521;43.310;21.876;2023-02-15T21:26:31;168.0;;;131.0;;
22675;SDS011;12521;43.310;21.876;2023-02-15T21:31:08;168.0;;;131.0;;
22675;SDS011;12521;43.310;21.876;2023-02-15T21:35:58;158.0;;;124.0;;
22675;SDS011;12521;43.310;21.876;2023-02-15T21:40:36;158.0;;;124.0;;
22675;SDS011;12521;43.310;21.876;2023-02-15T21:45:13;148.0;;;116.0;;
22675;SDS011;12521;43.310;21.876;2023-02-15T21:49:53;148.0;;;116.0;;
22675;SDS011;12521;43.310;21.876;2023-02-15T21:54:29;134.0;;;106.0;;
22675;SDS011;12521;43.310;21.876;2023-02-15T21:59:08;134.0;;;106.0;;
22675;SDS011;12521;43.310;21.876;2023-02-15T22:03:46;119.0;;;96.0;;
22675;SDS011;12521;43.310;21.876;2023-02-15T22:08:26;119.0;;;96.0;;
22675;SDS011;12521;43.310;21.876;2023-02-15T22:13:03;117.0;;;96.0;;
22675;SDS011;12521;43.310;21.876;2023-02-15T22:17:48;117.0;;;96.0;;
22675;SDS011;12521;43.310;21.876;2023-02-15T22:22:27;115.0;;;95.0;;
22675;SDS011;12521;43.310;21.876;2023-02-15T22:27:03;115.0;;;95.0;;
22675;SDS011;12521;43.310;21.876;2023-02-15T22:31:55;115.0;;;95.0;;
22675;SDS011;12521;43.310;21.876;2023-02-15T22:36:34;128.0;;;102.0;;
22675;SDS011;12521;43.310;21.876;2023-02-15T22:41:10;128.0;;;102.0;;
22675;SDS011;12521;43.310;21.876;2023-02-15T22:45:49;141.0;;;110.0;;
22675;SDS011;12521;43.310;21.876;2023-02-15T22:50:32;141.0;;;110.0;;
22675;SDS011;12521;43.310;21.876;2023-02-15T22:55:11;158.0;;;128.0;;
22675;SDS011;12521;43.310;21.876;2023-02-15T22:59:53;158.0;;;128.0;;
22675;SDS011;12521;43.310;21.876;2023-02-15T23:04:31;175.0;;;146.0;;
22675;SDS011;12521;43.310;21.876;2023-02-15T23:09:07;175.0;;;146.0;;
22675;SDS011;12521;43.310;21.876;2023-02-15T23:13:46;192.0;;;156.0;;
22675;SDS011;12521;43.310;21.876;2023-02-15T23:18:25;192.0;;;156.0;;
22675;SDS011;12521;43.310;21.876;2023-02-15T23:23:14;209.0;;;165.0;;
22675;SDS011;12521;43.310;21.876;2023-02-15T23:28:13;209.0;;;165.0;;
22675;SDS011;12521;43.310;21.876;2023-02-15T23:33:07;207.0;;;159.0;;
22675;SDS011;12521;43.310;21.876;2023-02-15T23:37:48;207.0;;;159.0;;
22675;SDS011;12521;43.310;21.876;2023-02-15T23:42:25;205.0;;;153.0;;
22675;SDS011;12521;43.310;21.876;2023-02-15T23:47:14;205.0;;;153.0;;
22675;SDS011;12521;43.310;21.876;2023-02-15T23:52:07;205.0;;;153.0;;
22675;SDS011;12521;43.310;21.876;2023-02-15T23:56:47;197.0;;;148.0;;
